Time;durP1;ratioP1;P1;durP2;ratioP2;P2;SDS_P1;SDS_P2;PMS_P1;PMS_P2;Temp;Humidity;BMP_temperature;BMP_pressure;BME280_temperature;BME280_humidity;BME280_pressure;Samples;Min_cycle;Max_cycle;Signal;HPM_P1;HPM_P2
2023/12/10 00:02:14;;;;;;;7.45;5.58;;;;;;;;;;1848093;78;21357;-61
2023/12/10 00:04:43;;;;;;;9.00;5.40;;;;;;;;;;1848130;78;21304;-61
2023/12/10 00:07:12;;;;;;;11.35;5.72;;;;;;;;;;1848092;78;21411;-61
2023/12/10 00:09:41;;;;;;;9.28;5.35;;;;;;;;;;1848090;78;21345;-61
2023/12/10 00:12:09;;;;;;;10.63;5.62;;;;;;;;;;1848225;78;21400;-61
2023/12/10 00:14:38;;;;;;;8.65;5.92;;;;;;;;;;1848140;78;21272;-61
2023/12/10 00:17:06;;;;;;;7.55;4.78;;;;;;;;;;1848230;78;21345;-61
2023/12/10 00:19:35;;;;;;;9.70;5.85;;;;;;;;;;1848239;78;21407;-61
2023/12/10 00:22:04;;;;;;;8.98;5.90;;;;;;;;;;1848257;78;21513;-61
2023/12/10 00:24:33;;;;;;;10.18;5.30;;;;;;;;;;1852746;77;21434;-61
2023/12/10 00:27:01;;;;;;;9.03;5.12;;;;;;;;;;1851131;77;21438;-61
2023/12/10 00:29:30;;;;;;;8.63;5.97;;;;;;;;;;1848303;78;21212;-61
2023/12/10 00:31:59;;;;;;;9.13;4.35;;;;;;;;;;1848260;78;21422;-61
2023/12/10 00:34:27;;;;;;;9.33;5.95;;;;;;;;;;1848176;78;21410;-61
2023/12/10 00:36:56;;;;;;;8.53;5.10;;;;;;;;;;1848251;78;21292;-61
2023/12/10 00:39:24;;;;;;;7.92;4.65;;;;;;;;;;1848366;78;21349;-61
2023/12/10 00:41:53;;;;;;;6.55;4.90;;;;;;;;;;1848170;78;21404;-61
2023/12/10 00:44:21;;;;;;;6.58;3.92;;;;;;;;;;1848268;78;21296;-61
2023/12/10 00:46:50;;;;;;;4.85;3.92;;;;;;;;;;1848229;78;21474;-61
2023/12/10 00:49:18;;;;;;;10.28;5.80;;;;;;;;;;1848212;78;21292;-61
2023/12/10 00:51:47;;;;;;;8.83;4.92;;;;;;;;;;1848183;78;21550;-61
2023/12/10 00:54:15;;;;;;;7.10;4.60;;;;;;;;;;1848189;78;21333;-61
2023/12/10 00:56:44;;;;;;;7.35;3.90;;;;;;;;;;1848219;78;21353;-61
2023/12/10 00:59:12;;;;;;;13.38;5.80;;;;;;;;;;1848290;78;21353;-61
2023/12/10 01:01:41;;;;;;;6.87;4.58;;;;;;;;;;1848119;78;21492;-61
2023/12/10 01:04:09;;;;;;;7.47;4.45;;;;;;;;;;1848324;78;21358;-61
2023/12/10 01:06:38;;;;;;;5.62;4.50;;;;;;;;;;1848301;78;21211;-61
2023/12/10 01:09:07;;;;;;;7.60;4.35;;;;;;;;;;1848177;78;21599;-61
2023/12/10 01:11:35;;;;;;;7.40;4.40;;;;;;;;;;1848265;78;21369;-61
2023/12/10 01:14:04;;;;;;;7.33;4.58;;;;;;;;;;1848270;78;21470;-61
2023/12/10 01:16:32;;;;;;;6.17;4.05;;;;;;;;;;1848241;78;21349;-61
2023/12/10 01:19:01;;;;;;;7.83;4.87;;;;;;;;;;1848313;78;21451;-61
2023/12/10 01:21:29;;;;;;;7.22;4.30;;;;;;;;;;1848190;78;21361;-61
2023/12/10 01:24:00;;;;;;;5.58;3.52;;;;;;;;;;1848232;78;21239;-61
2023/12/10 01:26:28;;;;;;;7.60;4.08;;;;;;;;;;1844425;77;21312;-61
2023/12/10 01:28:57;;;;;;;3.60;2.92;;;;;;;;;;1835826;78;21435;-61
2023/12/10 01:31:26;;;;;;;4.05;2.80;;;;;;;;;;1835879;78;21309;-61
2023/12/10 01:33:55;;;;;;;5.22;3.62;;;;;;;;;;1835846;78;21407;-61
2023/12/10 01:36:24;;;;;;;3.65;3.08;;;;;;;;;;1835881;78;21300;-61
2023/12/10 01:38:52;;;;;;;4.22;3.27;;;;;;;;;;1835978;78;21356;-61
2023/12/10 01:41:21;;;;;;;6.53;4.45;;;;;;;;;;1835793;78;21499;-61
2023/12/10 01:43:49;;;;;;;3.33;2.77;;;;;;;;;;1835823;78;21292;-61
2023/12/10 01:46:18;;;;;;;6.53;4.00;;;;;;;;;;1835871;78;21361;-61
2023/12/10 01:48:49;;;;;;;7.00;4.37;;;;;;;;;;1835938;78;21407;-61
2023/12/10 01:51:17;;;;;;;9.25;3.62;;;;;;;;;;1835873;78;21988;-61
2023/12/10 01:53:46;;;;;;;4.72;3.77;;;;;;;;;;1835839;78;21297;-61
2023/12/10 01:56:15;;;;;;;8.15;4.60;;;;;;;;;;1835858;78;21403;-61
2023/12/10 01:58:43;;;;;;;4.40;3.33;;;;;;;;;;1835836;78;21346;-61
2023/12/10 02:01:12;;;;;;;8.63;4.00;;;;;;;;;;1835926;78;21381;-61
2023/12/10 02:03:41;;;;;;;4.42;3.35;;;;;;;;;;1835777;78;21429;-61
2023/12/10 02:06:10;;;;;;;9.13;4.10;;;;;;;;;;1835839;78;21424;-61
2023/12/10 02:08:40;;;;;;;5.35;2.80;;;;;;;;;;1835856;78;21362;-61
2023/12/10 02:11:09;;;;;;;6.15;4.35;;;;;;;;;;1835957;78;21415;-61
2023/12/10 02:13:38;;;;;;;6.35;3.95;;;;;;;;;;1835809;78;21473;-61
2023/12/10 02:16:07;;;;;;;7.03;4.17;;;;;;;;;;1835923;78;21235;-61
2023/12/10 02:18:35;;;;;;;6.80;4.58;;;;;;;;;;1835813;78;21427;-61
2023/12/10 02:21:04;;;;;;;3.35;2.42;;;;;;;;;;1835863;78;21417;-61
2023/12/10 02:23:34;;;;;;;3.92;2.75;;;;;;;;;;1835930;78;21317;-61
2023/12/10 02:26:03;;;;;;;5.22;3.65;;;;;;;;;;1829871;78;21239;-61
2023/12/10 02:28:32;;;;;;;7.15;3.90;;;;;;;;;;1835769;77;21507;-61
2023/12/10 02:31:01;;;;;;;4.03;2.87;;;;;;;;;;1835861;78;21408;-61
2023/12/10 02:33:29;;;;;;;2.72;1.95;;;;;;;;;;1835902;78;21337;-61
2023/12/10 02:35:58;;;;;;;2.30;1.62;;;;;;;;;;1835974;78;21763;-61
2023/12/10 02:38:27;;;;;;;5.35;3.60;;;;;;;;;;1835973;78;21362;-61
2023/12/10 02:40:55;;;;;;;4.90;2.98;;;;;;;;;;1835819;78;21304;-61
2023/12/10 02:43:24;;;;;;;5.62;3.55;;;;;;;;;;1835795;78;21335;-61
2023/12/10 02:45:52;;;;;;;6.15;3.15;;;;;;;;;;1835740;78;21485;-61
2023/12/10 02:48:22;;;;;;;6.33;3.05;;;;;;;;;;1835794;78;21427;-61
2023/12/10 02:50:51;;;;;;;7.37;3.77;;;;;;;;;;1835893;78;21646;-61
2023/12/10 02:53:19;;;;;;;5.72;3.37;;;;;;;;;;1835858;78;21423;-61
2023/12/10 02:55:48;;;;;;;7.30;3.83;;;;;;;;;;1836011;78;21300;-61
2023/12/10 02:58:17;;;;;;;3.62;2.47;;;;;;;;;;1835852;78;21345;-61
2023/12/10 03:00:45;;;;;;;3.45;2.85;;;;;;;;;;1835894;78;21362;-61
2023/12/10 03:03:14;;;;;;;5.65;2.72;;;;;;;;;;1835947;78;21425;-61
2023/12/10 03:05:42;;;;;;;5.97;3.92;;;;;;;;;;1835863;78;21559;-61
2023/12/10 03:08:11;;;;;;;3.60;2.65;;;;;;;;;;1835886;78;21418;-61
2023/12/10 03:10:40;;;;;;;2.47;2.20;;;;;;;;;;1835932;78;21264;-61
2023/12/10 03:13:08;;;;;;;5.00;2.77;;;;;;;;;;1835872;78;21326;-61
2023/12/10 03:15:36;;;;;;;2.87;2.05;;;;;;;;;;1836003;78;21341;-61
2023/12/10 03:18:05;;;;;;;4.62;3.33;;;;;;;;;;1835907;78;21277;-61
2023/12/10 03:20:34;;;;;;;4.58;3.50;;;;;;;;;;1835968;78;21215;-61
2023/12/10 03:23:03;;;;;;;4.10;2.90;;;;;;;;;;1835804;78;21300;-61
2023/12/10 03:25:31;;;;;;;5.80;3.67;;;;;;;;;;1835750;78;21404;-61
2023/12/10 03:28:00;;;;;;;4.15;3.27;;;;;;;;;;1848309;77;21381;-61
2023/12/10 03:30:28;;;;;;;4.72;3.15;;;;;;;;;;1859509;77;21402;-61
2023/12/10 03:32:57;;;;;;;4.40;3.10;;;;;;;;;;1859482;77;21332;-61
2023/12/10 03:35:25;;;;;;;4.50;2.60;;;;;;;;;;1859476;77;21475;-61
2023/12/10 03:37:54;;;;;;;4.35;2.50;;;;;;;;;;1859567;77;21341;-61
2023/12/10 03:40:23;;;;;;;5.22;3.50;;;;;;;;;;1859466;76;21430;-61
2023/12/10 03:42:51;;;;;;;4.45;2.77;;;;;;;;;;1859506;77;21469;-61
2023/12/10 03:45:20;;;;;;;4.10;2.92;;;;;;;;;;1859452;76;21340;-61
2023/12/10 03:47:49;;;;;;;3.05;2.50;;;;;;;;;;1859450;77;21427;-61
2023/12/10 03:50:18;;;;;;;4.30;2.77;;;;;;;;;;1859473;77;21422;-61
2023/12/10 03:52:46;;;;;;;6.67;3.50;;;;;;;;;;1859640;77;21333;-61
2023/12/10 03:55:14;;;;;;;3.62;2.58;;;;;;;;;;1859666;76;21340;-61
2023/12/10 03:57:44;;;;;;;4.75;3.50;;;;;;;;;;1859695;77;21419;-61
2023/12/10 04:00:13;;;;;;;6.37;3.90;;;;;;;;;;1859678;77;21299;-61
2023/12/10 04:02:41;;;;;;;3.77;2.62;;;;;;;;;;1859605;77;21486;-61
2023/12/10 04:05:11;;;;;;;3.95;2.75;;;;;;;;;;1859611;77;21346;-61
2023/12/10 04:07:40;;;;;;;5.75;3.98;;;;;;;;;;1859755;77;21402;-61
2023/12/10 04:10:09;;;;;;;4.92;3.02;;;;;;;;;;1859636;77;21234;-61
2023/12/10 04:12:37;;;;;;;3.45;2.85;;;;;;;;;;1859565;77;21421;-61
2023/12/10 04:15:06;;;;;;;5.60;2.50;;;;;;;;;;1859572;77;21360;-61
2023/12/10 04:17:35;;;;;;;2.80;1.75;;;;;;;;;;1859530;77;21313;-61
2023/12/10 04:20:04;;;;;;;4.55;3.40;;;;;;;;;;1859543;77;21479;-61
2023/12/10 04:22:33;;;;;;;3.92;3.05;;;;;;;;;;1859521;77;21384;-60
2023/12/10 04:25:01;;;;;;;5.10;4.20;;;;;;;;;;1859622;77;21346;-61
2023/12/10 04:27:30;;;;;;;3.55;2.50;;;;;;;;;;1858109;77;21337;-61
2023/12/10 04:29:58;;;;;;;6.40;2.98;;;;;;;;;;1848202;78;21422;-61
2023/12/10 04:32:26;;;;;;;7.10;3.85;;;;;;;;;;1848264;78;21394;-60
2023/12/10 04:34:55;;;;;;;5.22;3.60;;;;;;;;;;1848250;78;21276;-61
2023/12/10 04:37:23;;;;;;;6.20;4.45;;;;;;;;;;1848270;78;21418;-61
2023/12/10 04:39:53;;;;;;;6.97;3.98;;;;;;;;;;1848204;78;21307;-61
2023/12/10 04:42:22;;;;;;;6.05;2.95;;;;;;;;;;1848206;78;21384;-61
2023/12/10 04:44:50;;;;;;;2.83;2.02;;;;;;;;;;1848171;78;21434;-61
2023/12/10 04:47:19;;;;;;;3.70;2.72;;;;;;;;;;1848322;78;21374;-61
2023/12/10 04:49:54;;;;;;;4.47;2.75;;;;;;;;;;1848198;78;21424;-61
2023/12/10 04:52:23;;;;;;;4.30;3.00;;;;;;;;;;1863573;74;21422;-61
2023/12/10 04:54:52;;;;;;;3.40;1.98;;;;;;;;;;1882295;76;21397;-61
2023/12/10 04:57:20;;;;;;;5.42;2.98;;;;;;;;;;1882313;75;21277;-61
2023/12/10 04:59:49;;;;;;;4.85;2.35;;;;;;;;;;1882235;76;21434;-61
2023/12/10 05:02:17;;;;;;;2.80;2.05;;;;;;;;;;1882373;76;21237;-61
2023/12/10 05:04:46;;;;;;;4.75;2.85;;;;;;;;;;1882133;76;21395;-61
2023/12/10 05:07:15;;;;;;;3.08;2.58;;;;;;;;;;1882239;76;21317;-61
2023/12/10 05:09:49;;;;;;;3.43;2.30;;;;;;;;;;1928484;73;21886;-61
2023/12/10 05:12:18;;;;;;;2.02;1.60;;;;;;;;;;1949539;72;21434;-61
2023/12/10 05:14:46;;;;;;;4.28;2.58;;;;;;;;;;1949669;73;21335;-61
2023/12/10 05:17:15;;;;;;;2.35;2.00;;;;;;;;;;1949545;73;21331;-61
2023/12/10 05:19:43;;;;;;;2.87;2.52;;;;;;;;;;1949445;72;21321;-61
2023/12/10 05:22:12;;;;;;;2.98;2.65;;;;;;;;;;1949302;72;21338;-61
2023/12/10 05:24:41;;;;;;;3.00;2.05;;;;;;;;;;1949285;72;21265;-61
2023/12/10 05:27:11;;;;;;;4.97;3.62;;;;;;;;;;1949306;72;21253;-61
2023/12/10 05:29:40;;;;;;;3.30;2.80;;;;;;;;;;1949349;72;21477;-61
2023/12/10 05:32:08;;;;;;;4.25;3.10;;;;;;;;;;1949386;72;21351;-61
2023/12/10 05:34:37;;;;;;;3.33;2.50;;;;;;;;;;1949366;73;21390;-61
2023/12/10 05:37:05;;;;;;;3.90;2.85;;;;;;;;;;1949423;72;21130;-61
2023/12/10 05:39:34;;;;;;;3.10;2.55;;;;;;;;;;1949352;73;21261;-61
2023/12/10 05:42:03;;;;;;;2.80;2.33;;;;;;;;;;1949317;73;21257;-61
2023/12/10 05:44:32;;;;;;;4.65;2.22;;;;;;;;;;1949343;73;21237;-61
2023/12/10 05:47:00;;;;;;;3.30;2.85;;;;;;;;;;1949434;73;21382;-61
2023/12/10 05:49:30;;;;;;;3.58;2.92;;;;;;;;;;1949268;73;21398;-61
2023/12/10 05:51:58;;;;;;;4.28;3.25;;;;;;;;;;1949470;73;21394;-61
2023/12/10 05:54:27;;;;;;;2.70;2.22;;;;;;;;;;1949416;72;21355;-61
2023/12/10 05:56:55;;;;;;;4.25;2.37;;;;;;;;;;1949416;73;21299;-61
2023/12/10 05:59:23;;;;;;;4.08;3.00;;;;;;;;;;1949353;72;21355;-60
2023/12/10 06:01:52;;;;;;;4.00;3.12;;;;;;;;;;1949306;73;21449;-61
2023/12/10 06:04:21;;;;;;;16.55;10.53;;;;;;;;;;1949379;73;21268;-61
2023/12/10 06:06:49;;;;;;;3.83;3.00;;;;;;;;;;1949385;73;21253;-61
2023/12/10 06:09:18;;;;;;;4.12;3.05;;;;;;;;;;1940825;73;21422;-61
2023/12/10 06:11:46;;;;;;;3.62;2.52;;;;;;;;;;1930817;74;21236;-61
2023/12/10 06:14:15;;;;;;;3.20;2.60;;;;;;;;;;1930921;74;21221;-61
2023/12/10 06:16:44;;;;;;;3.60;2.85;;;;;;;;;;1930842;73;21308;-61
2023/12/10 06:19:12;;;;;;;3.35;2.52;;;;;;;;;;1930866;74;21264;-61
2023/12/10 06:21:41;;;;;;;6.00;3.20;;;;;;;;;;1930733;73;21367;-61
2023/12/10 06:24:09;;;;;;;5.17;3.62;;;;;;;;;;1930661;73;21272;-61
2023/12/10 06:26:38;;;;;;;3.70;3.30;;;;;;;;;;1930767;73;21359;-61
2023/12/10 06:29:06;;;;;;;4.67;2.52;;;;;;;;;;1930751;74;21257;-61
2023/12/10 06:31:35;;;;;;;3.50;2.58;;;;;;;;;;1930760;74;21170;-61
2023/12/10 06:34:03;;;;;;;5.08;3.50;;;;;;;;;;1930799;73;21291;-61
2023/12/10 06:36:32;;;;;;;3.52;2.85;;;;;;;;;;1930810;74;21300;-61
2023/12/10 06:39:01;;;;;;;17.27;12.70;;;;;;;;;;1930695;74;21371;-61
2023/12/10 06:41:29;;;;;;;4.05;3.62;;;;;;;;;;1930643;74;21229;-61
2023/12/10 06:43:58;;;;;;;4.62;3.40;;;;;;;;;;1930577;74;21366;-60
2023/12/10 06:46:27;;;;;;;5.33;3.17;;;;;;;;;;1930656;74;21296;-61
2023/12/10 06:48:55;;;;;;;3.83;3.17;;;;;;;;;;1930698;73;21256;-61
2023/12/10 06:51:24;;;;;;;5.60;3.42;;;;;;;;;;1930713;74;21264;-61
2023/12/10 06:53:52;;;;;;;4.95;3.40;;;;;;;;;;1930650;73;21836;-60
2023/12/10 06:56:21;;;;;;;6.83;4.10;;;;;;;;;;1930706;74;21394;-61
2023/12/10 06:58:50;;;;;;;6.35;3.95;;;;;;;;;;1930656;73;21327;-61
2023/12/10 07:01:18;;;;;;;5.45;3.05;;;;;;;;;;1930820;74;21361;-61
2023/12/10 07:03:47;;;;;;;4.22;3.22;;;;;;;;;;1930652;74;21356;-61
2023/12/10 07:06:16;;;;;;;6.17;3.12;;;;;;;;;;1930701;74;21319;-61
2023/12/10 07:08:44;;;;;;;4.22;3.20;;;;;;;;;;1930552;73;21316;-60
2023/12/10 07:11:13;;;;;;;4.90;3.40;;;;;;;;;;1930749;73;21261;-61
2023/12/10 07:13:42;;;;;;;6.22;3.40;;;;;;;;;;1930679;74;21295;-61
2023/12/10 07:16:11;;;;;;;3.75;2.87;;;;;;;;;;1930858;73;21390;-61
2023/12/10 07:18:39;;;;;;;4.70;3.30;;;;;;;;;;1930733;74;21355;-61
2023/12/10 07:21:08;;;;;;;4.05;3.12;;;;;;;;;;1930720;74;21503;-61
2023/12/10 07:23:37;;;;;;;4.28;2.92;;;;;;;;;;1930600;73;21324;-61
2023/12/10 07:26:06;;;;;;;12.20;6.53;;;;;;;;;;1930576;74;21272;-61
2023/12/10 07:28:34;;;;;;;8.03;3.90;;;;;;;;;;1930596;74;21217;-61
2023/12/10 07:31:02;;;;;;;7.47;5.40;;;;;;;;;;1930632;74;21256;-61
2023/12/10 07:33:31;;;;;;;7.28;2.67;;;;;;;;;;1930583;74;21350;-60
2023/12/10 07:36:00;;;;;;;5.50;3.58;;;;;;;;;;1930651;74;21381;-60
2023/12/10 07:38:28;;;;;;;7.87;3.85;;;;;;;;;;1930738;74;21440;-61
2023/12/10 07:40:57;;;;;;;3.77;2.45;;;;;;;;;;1930611;74;21379;-61
2023/12/10 07:43:25;;;;;;;4.83;3.87;;;;;;;;;;1930601;74;21316;-60
2023/12/10 07:45:54;;;;;;;4.95;3.12;;;;;;;;;;1930614;74;21260;-60
2023/12/10 07:48:23;;;;;;;29.75;13.75;;;;;;;;;;1930557;73;21186;-60
2023/12/10 07:50:52;;;;;;;4.53;3.47;;;;;;;;;;1930757;74;21370;-61
2023/12/10 07:53:20;;;;;;;3.90;3.37;;;;;;;;;;1930531;74;21316;-61
2023/12/10 07:55:49;;;;;;;6.85;2.80;;;;;;;;;;1930616;73;21398;-60
2023/12/10 07:58:18;;;;;;;4.40;2.85;;;;;;;;;;1930660;74;21340;-60
2023/12/10 08:00:47;;;;;;;4.90;3.67;;;;;;;;;;1930605;73;21316;-60
2023/12/10 08:03:16;;;;;;;5.70;3.90;;;;;;;;;;1930575;73;21441;-60
2023/12/10 08:05:44;;;;;;;8.05;4.40;;;;;;;;;;1930615;74;21249;-60
2023/12/10 08:08:13;;;;;;;5.90;4.03;;;;;;;;;;1930640;73;21241;-60
2023/12/10 08:10:41;;;;;;;5.28;3.08;;;;;;;;;;1942195;73;21218;-61
2023/12/10 08:13:10;;;;;;;5.60;3.72;;;;;;;;;;1948851;73;21348;-61
2023/12/10 08:15:39;;;;;;;7.80;3.80;;;;;;;;;;1948923;72;21323;-60
2023/12/10 08:18:08;;;;;;;4.92;3.20;;;;;;;;;;1948838;73;21414;-60
2023/12/10 08:20:37;;;;;;;5.62;3.12;;;;;;;;;;1948827;72;21296;-61
2023/12/10 08:23:05;;;;;;;8.15;4.50;;;;;;;;;;1948734;72;21300;-61
2023/12/10 08:25:34;;;;;;;7.83;4.87;;;;;;;;;;1948798;73;21371;-60
2023/12/10 08:28:03;;;;;;;6.40;4.78;;;;;;;;;;1948750;72;21398;-61
2023/12/10 08:30:31;;;;;;;5.08;3.65;;;;;;;;;;1948980;73;21212;-60
2023/12/10 08:33:00;;;;;;;3.27;2.55;;;;;;;;;;1948986;73;21265;-60
2023/12/10 08:35:29;;;;;;;5.83;4.10;;;;;;;;;;1949011;72;21414;-60
2023/12/10 08:37:58;;;;;;;14.68;7.47;;;;;;;;;;1949006;73;21347;-60
2023/12/10 08:40:26;;;;;;;6.72;4.60;;;;;;;;;;1948976;73;21320;-60
2023/12/10 08:42:55;;;;;;;14.07;10.58;;;;;;;;;;1949057;73;21375;-61
2023/12/10 08:45:24;;;;;;;8.40;5.85;;;;;;;;;;1949027;73;21307;-60
2023/12/10 08:47:53;;;;;;;9.20;5.35;;;;;;;;;;1948907;73;21319;-61
2023/12/10 08:50:21;;;;;;;4.33;3.37;;;;;;;;;;1949066;73;21361;-59
2023/12/10 08:52:50;;;;;;;8.00;6.42;;;;;;;;;;1948940;73;21671;-60
2023/12/10 08:55:19;;;;;;;7.22;5.87;;;;;;;;;;1949060;73;21401;-59
2023/12/10 08:57:47;;;;;;;6.03;4.33;;;;;;;;;;1949029;72;21316;-60
2023/12/10 09:00:16;;;;;;;5.83;4.50;;;;;;;;;;1949108;72;21360;-60
2023/12/10 09:02:45;;;;;;;8.03;6.25;;;;;;;;;;1948984;72;21456;-60
2023/12/10 09:05:14;;;;;;;7.83;5.80;;;;;;;;;;1949070;72;21291;-60
2023/12/10 09:07:43;;;;;;;11.15;6.17;;;;;;;;;;1948953;73;21433;-60
2023/12/10 09:10:11;;;;;;;7.70;4.08;;;;;;;;;;1948986;73;21206;-60
2023/12/10 09:12:40;;;;;;;7.10;5.33;;;;;;;;;;1949111;73;21308;-60
2023/12/10 09:15:09;;;;;;;5.37;3.58;;;;;;;;;;1948980;73;21398;-60
2023/12/10 09:17:38;;;;;;;5.80;4.30;;;;;;;;;;1949018;73;21237;-60
2023/12/10 09:20:07;;;;;;;9.68;6.47;;;;;;;;;;1948864;73;21480;-60
2023/12/10 09:22:36;;;;;;;6.45;5.00;;;;;;;;;;1948728;73;21249;-60
2023/12/10 09:25:05;;;;;;;6.58;5.28;;;;;;;;;;1949154;72;21377;-59
2023/12/10 09:27:33;;;;;;;8.13;5.85;;;;;;;;;;1949034;72;21375;-60
2023/12/10 09:30:02;;;;;;;8.05;5.33;;;;;;;;;;1949037;72;21370;-60
2023/12/10 09:32:31;;;;;;;7.65;5.50;;;;;;;;;;1949044;72;21221;-60
2023/12/10 09:35:00;;;;;;;11.70;7.28;;;;;;;;;;1949035;73;21379;-60
2023/12/10 09:37:29;;;;;;;7.05;6.08;;;;;;;;;;1949063;72;21406;-60
2023/12/10 09:39:58;;;;;;;10.08;6.53;;;;;;;;;;1949164;73;21371;-60
2023/12/10 09:42:26;;;;;;;16.65;10.48;;;;;;;;;;1948904;72;21304;-59
2023/12/10 09:44:55;;;;;;;9.55;6.35;;;;;;;;;;1948863;72;21355;-60
2023/12/10 09:47:24;;;;;;;14.85;8.53;;;;;;;;;;1949017;73;21316;-60
2023/12/10 09:49:57;;;;;;;11.50;7.72;;;;;;;;;;1949047;73;21300;-59
2023/12/10 09:52:25;;;;;;;11.35;7.12;;;;;;;;;;1949065;73;21683;-60
2023/12/10 09:54:54;;;;;;;13.28;7.67;;;;;;;;;;1949169;72;21387;-59
2023/12/10 09:57:24;;;;;;;14.65;8.55;;;;;;;;;;1948921;72;21315;-59
2023/12/10 09:59:53;;;;;;;12.55;8.05;;;;;;;;;;1948980;73;21186;-60
2023/12/10 10:02:22;;;;;;;10.03;7.40;;;;;;;;;;1948874;72;21374;-60
2023/12/10 10:04:51;;;;;;;12.03;7.37;;;;;;;;;;1948856;73;21324;-59
2023/12/10 10:07:21;;;;;;;12.58;7.25;;;;;;;;;;1949022;73;21323;-59
2023/12/10 10:09:50;;;;;;;15.40;9.98;;;;;;;;;;1948879;73;21212;-60
2023/12/10 10:12:19;;;;;;;10.72;7.40;;;;;;;;;;1948820;73;21288;-59
2023/12/10 10:14:57;;;;;;;12.10;7.85;;;;;;;;;;1948865;72;21289;-61
2023/12/10 10:17:27;;;;;;;61.85;26.45;;;;;;;;;;1948839;73;21366;-60
2023/12/10 10:19:56;;;;;;;12.07;8.80;;;;;;;;;;1948911;73;21276;-60
2023/12/10 10:22:25;;;;;;;14.07;9.03;;;;;;;;;;1948781;72;21190;-60
2023/12/10 10:24:54;;;;;;;10.23;5.78;;;;;;;;;;1948986;72;21347;-60
2023/12/10 10:27:23;;;;;;;15.35;8.83;;;;;;;;;;1948971;73;21379;-60
2023/12/10 10:29:55;;;;;;;13.15;8.40;;;;;;;;;;1948992;72;21363;-60
2023/12/10 10:32:24;;;;;;;14.93;8.53;;;;;;;;;;1948895;73;21316;-60
2023/12/10 10:34:53;;;;;;;17.35;10.85;;;;;;;;;;1949007;73;21340;-60
2023/12/10 10:37:22;;;;;;;10.20;8.10;;;;;;;;;;1948977;73;21351;-60
2023/12/10 10:40:03;;;;;;;12.58;8.15;;;;;;;;;;1972450;71;21334;-60
2023/12/10 10:42:32;;;;;;;11.05;7.87;;;;;;;;;;1974322;73;21142;-60
2023/12/10 10:45:01;;;;;;;13.58;9.00;;;;;;;;;;1974389;72;21251;-60
2023/12/10 10:47:32;;;;;;;15.65;8.65;;;;;;;;;;1974381;73;21363;-60
2023/12/10 10:50:03;;;;;;;12.70;8.78;;;;;;;;;;1974324;72;21161;-61
2023/12/10 10:52:32;;;;;;;11.93;7.97;;;;;;;;;;1974326;71;21305;-61
2023/12/10 10:55:02;;;;;;;15.88;9.40;;;;;;;;;;1974331;71;21377;-60
2023/12/10 10:57:34;;;;;;;13.78;9.33;;;;;;;;;;1974404;72;21344;-60
2023/12/10 11:00:18;;;;;;;17.55;11.85;;;;;;;;;;1974107;71;21775;-61
2023/12/10 11:02:48;;;;;;;18.57;11.83;;;;;;;;;;1974440;71;21173;-60
2023/12/10 11:05:23;;;;;;;10.98;7.35;;;;;;;;;;1974316;72;21408;-60
2023/12/10 11:07:52;;;;;;;14.93;9.50;;;;;;;;;;1962231;71;21322;-60
2023/12/10 11:10:21;;;;;;;17.73;8.93;;;;;;;;;;1974200;72;21365;-61
2023/12/10 11:12:51;;;;;;;16.07;8.95;;;;;;;;;;1974232;72;21368;-60
2023/12/10 11:15:21;;;;;;;14.28;8.68;;;;;;;;;;1974341;71;21324;-61
2023/12/10 11:17:54;;;;;;;14.33;8.83;;;;;;;;;;1974175;71;21286;-60
2023/12/10 11:20:32;;;;;;;22.77;14.00;;;;;;;;;;1974261;72;21355;-60
2023/12/10 11:23:02;;;;;;;13.85;9.15;;;;;;;;;;1974142;71;21419;-60
2023/12/10 11:25:31;;;;;;;13.08;8.38;;;;;;;;;;1974329;72;21295;-60
2023/12/10 11:28:01;;;;;;;13.40;8.50;;;;;;;;;;1974282;71;21290;-60
2023/12/10 11:30:30;;;;;;;14.13;7.45;;;;;;;;;;1974411;71;21355;-60
2023/12/10 11:32:59;;;;;;;13.50;8.55;;;;;;;;;;1974296;73;21220;-60
2023/12/10 11:35:27;;;;;;;14.47;8.30;;;;;;;;;;1974267;72;21252;-61
2023/12/10 11:37:56;;;;;;;13.98;8.08;;;;;;;;;;1974178;71;21291;-60
2023/12/10 11:40:25;;;;;;;18.27;11.35;;;;;;;;;;1978029;71;21259;-60
2023/12/10 11:42:54;;;;;;;10.55;7.45;;;;;;;;;;1977830;72;21263;-60
2023/12/10 11:45:23;;;;;;;16.25;9.40;;;;;;;;;;1977960;72;21492;-60
2023/12/10 11:47:52;;;;;;;16.02;10.25;;;;;;;;;;1978010;71;21181;-61
2023/12/10 11:50:20;;;;;;;16.77;9.90;;;;;;;;;;1977991;72;21357;-60
2023/12/10 11:52:49;;;;;;;16.32;10.65;;;;;;;;;;1977925;72;21406;-60
2023/12/10 11:55:18;;;;;;;16.30;11.22;;;;;;;;;;1977979;71;21274;-60
2023/12/10 11:57:46;;;;;;;16.35;9.70;;;;;;;;;;1977963;72;21298;-60
2023/12/10 12:00:15;;;;;;;15.03;8.70;;;;;;;;;;1977888;72;21359;-60
2023/12/10 12:02:45;;;;;;;11.60;8.55;;;;;;;;;;1977890;71;21231;-60
2023/12/10 12:05:14;;;;;;;13.95;9.28;;;;;;;;;;1978038;71;21241;-60
2023/12/10 12:07:43;;;;;;;14.90;8.43;;;;;;;;;;1978013;72;21286;-60
2023/12/10 12:10:13;;;;;;;19.00;10.63;;;;;;;;;;1977903;72;21426;-61
2023/12/10 12:12:43;;;;;;;14.83;9.35;;;;;;;;;;1978148;72;21173;-61
2023/12/10 12:15:12;;;;;;;15.58;9.90;;;;;;;;;;1978120;71;21267;-60
2023/12/10 12:17:42;;;;;;;17.23;10.10;;;;;;;;;;1978211;71;21180;-59
2023/12/10 12:20:14;;;;;;;17.95;10.40;;;;;;;;;;1978137;72;21399;-59
2023/12/10 12:22:42;;;;;;;15.28;10.70;;;;;;;;;;1978114;71;21301;-59
2023/12/10 12:25:11;;;;;;;18.65;10.75;;;;;;;;;;1978073;71;21351;-59
2023/12/10 12:27:40;;;;;;;14.65;9.80;;;;;;;;;;1978081;72;21407;-60
2023/12/10 12:30:09;;;;;;;16.50;11.15;;;;;;;;;;1978257;72;21289;-59
2023/12/10 12:32:38;;;;;;;22.80;13.50;;;;;;;;;;1978208;72;21348;-59
2023/12/10 12:35:06;;;;;;;18.73;11.78;;;;;;;;;;1978239;71;21255;-59
2023/12/10 12:37:35;;;;;;;22.20;12.33;;;;;;;;;;1978242;71;21301;-59
2023/12/10 12:40:06;;;;;;;16.25;9.93;;;;;;;;;;1968385;71;21313;-59
2023/12/10 12:42:34;;;;;;;14.30;8.60;;;;;;;;;;1962284;73;21382;-60
2023/12/10 12:45:03;;;;;;;12.75;8.33;;;;;;;;;;1962307;73;21273;-59
2023/12/10 12:47:32;;;;;;;12.05;8.18;;;;;;;;;;1962202;73;21376;-60
2023/12/10 12:50:01;;;;;;;19.27;10.70;;;;;;;;;;1962236;73;21247;-59
2023/12/10 12:52:30;;;;;;;16.70;9.73;;;;;;;;;;1962215;73;21244;-59
2023/12/10 12:54:59;;;;;;;14.47;9.20;;;;;;;;;;1962280;73;21407;-59
2023/12/10 12:57:28;;;;;;;18.67;9.85;;;;;;;;;;1962287;72;21411;-59
2023/12/10 12:59:56;;;;;;;18.73;9.93;;;;;;;;;;1962268;73;21243;-60
2023/12/10 13:02:25;;;;;;;15.48;8.85;;;;;;;;;;1962225;72;21247;-60
2023/12/10 13:04:53;;;;;;;13.15;8.13;;;;;;;;;;1962386;73;21161;-60
2023/12/10 13:07:22;;;;;;;11.30;8.63;;;;;;;;;;1962159;73;21368;-60
2023/12/10 13:09:51;;;;;;;13.38;9.00;;;;;;;;;;1962265;72;21307;-59
2023/12/10 13:12:19;;;;;;;14.55;9.83;;;;;;;;;;1962253;73;21235;-60
2023/12/10 13:14:48;;;;;;;17.67;10.58;;;;;;;;;;1962231;73;21298;-59
2023/12/10 13:17:17;;;;;;;13.00;7.45;;;;;;;;;;1962184;73;21468;-59
2023/12/10 13:19:46;;;;;;;16.52;10.63;;;;;;;;;;1962424;72;21329;-59
2023/12/10 13:22:15;;;;;;;15.43;10.18;;;;;;;;;;1962250;72;21262;-60
2023/12/10 13:24:43;;;;;;;20.62;10.45;;;;;;;;;;1962243;73;21371;-59
2023/12/10 13:27:12;;;;;;;17.62;12.35;;;;;;;;;;1962233;73;21373;-60
2023/12/10 13:29:41;;;;;;;16.77;10.50;;;;;;;;;;1962243;73;21352;-59
2023/12/10 13:32:09;;;;;;;20.60;12.93;;;;;;;;;;1962325;73;21188;-59
2023/12/10 13:34:39;;;;;;;20.72;12.53;;;;;;;;;;1962303;72;21192;-59
2023/12/10 13:37:08;;;;;;;25.45;12.90;;;;;;;;;;1962351;72;21332;-59
2023/12/10 13:39:37;;;;;;;21.00;12.30;;;;;;;;;;1965055;72;21391;-60
2023/12/10 13:42:06;;;;;;;18.67;11.25;;;;;;;;;;1974447;71;21388;-59
2023/12/10 13:44:35;;;;;;;20.12;11.70;;;;;;;;;;1974332;71;21293;-59
2023/12/10 13:47:04;;;;;;;18.17;11.15;;;;;;;;;;1974397;73;21537;-60
2023/12/10 13:49:32;;;;;;;20.12;12.30;;;;;;;;;;1974311;72;21239;-59
2023/12/10 13:52:01;;;;;;;25.05;13.85;;;;;;;;;;1974268;71;21376;-60
2023/12/10 13:54:30;;;;;;;23.98;15.45;;;;;;;;;;1974354;73;21290;-59
2023/12/10 13:56:59;;;;;;;26.75;15.30;;;;;;;;;;1974269;72;21434;-59
2023/12/10 13:59:28;;;;;;;26.50;15.45;;;;;;;;;;1974336;72;21768;-59
2023/12/10 14:01:57;;;;;;;21.35;13.83;;;;;;;;;;1974283;73;21399;-59
2023/12/10 14:04:25;;;;;;;24.77;14.47;;;;;;;;;;1974414;72;21181;-59
2023/12/10 14:06:54;;;;;;;28.50;14.47;;;;;;;;;;1974294;71;21247;-60
2023/12/10 14:09:23;;;;;;;25.00;13.65;;;;;;;;;;1974346;73;21368;-59
2023/12/10 14:11:51;;;;;;;23.18;12.60;;;;;;;;;;1974252;72;21325;-60
2023/12/10 14:14:20;;;;;;;27.30;15.58;;;;;;;;;;1974343;73;21293;-59
2023/12/10 14:16:49;;;;;;;28.95;13.65;;;;;;;;;;1974404;71;21305;-59
2023/12/10 14:19:18;;;;;;;27.65;15.23;;;;;;;;;;1974379;71;21341;-59
2023/12/10 14:21:47;;;;;;;32.35;16.07;;;;;;;;;;1974258;73;21352;-60
2023/12/10 14:24:15;;;;;;;33.33;17.02;;;;;;;;;;1974304;72;21267;-59
2023/12/10 14:26:44;;;;;;;30.88;16.62;;;;;;;;;;1974394;72;21376;-59
2023/12/10 14:29:13;;;;;;;20.92;13.78;;;;;;;;;;1974481;71;21361;-60
2023/12/10 14:31:42;;;;;;;29.37;17.77;;;;;;;;;;1974357;72;21372;-60
2023/12/10 14:34:11;;;;;;;33.95;18.00;;;;;;;;;;1974406;73;21433;-59
2023/12/10 14:36:39;;;;;;;37.90;20.75;;;;;;;;;;1974232;73;21130;-60
2023/12/10 14:39:08;;;;;;;31.73;18.95;;;;;;;;;;1974283;71;21307;-60
2023/12/10 14:41:37;;;;;;;27.22;14.07;;;;;;;;;;1977502;72;21325;-60
2023/12/10 14:44:06;;;;;;;32.53;16.23;;;;;;;;;;1978111;71;21270;-59
2023/12/10 14:46:35;;;;;;;28.85;16.87;;;;;;;;;;1977938;72;21402;-59